createdAt,value
2023-03-22T00:01:30.831Z,14.24
2023-03-22T00:03:58.888Z,14.10
2023-03-22T00:06:26.654Z,14.18
2023-03-22T00:08:54.656Z,14.11
2023-03-22T00:11:25.455Z,14.13
2023-03-22T00:13:54.727Z,14.11
2023-03-22T00:16:22.466Z,13.92
2023-03-22T00:18:49.629Z,14.02
2023-03-22T00:21:17.915Z,14.10
2023-03-22T00:23:45.922Z,13.84
2023-03-22T00:26:14.840Z,13.97
2023-03-22T00:28:42.665Z,13.97
2023-03-22T00:31:10.880Z,13.92
2023-03-22T00:33:38.548Z,14.13
2023-03-22T00:36:12.234Z,14.03
2023-03-22T00:38:42.814Z,14.02
2023-03-22T00:41:22.660Z,13.97
2023-03-22T00:43:51.858Z,13.85
2023-03-22T00:46:21.117Z,13.87
2023-03-22T00:48:49.034Z,13.95
2023-03-22T00:51:16.959Z,13.97
2023-03-22T00:53:44.422Z,13.88
2023-03-22T00:56:15.563Z,13.95
2023-03-22T00:58:43.646Z,13.94
2023-03-22T01:01:15.014Z,13.95
2023-03-22T01:03:44.351Z,13.96
2023-03-22T01:06:12.010Z,13.90
2023-03-22T01:08:39.501Z,13.86
2023-03-22T01:11:08.630Z,13.88
2023-03-22T01:13:37.743Z,13.57
2023-03-22T01:16:07.000Z,13.79
2023-03-22T01:18:35.779Z,13.86
2023-03-22T01:21:03.598Z,13.82
2023-03-22T01:23:31.040Z,13.80
2023-03-22T01:25:58.087Z,13.78
2023-03-22T01:28:27.147Z,13.70
2023-03-22T01:30:55.933Z,13.76
2023-03-22T01:33:23.115Z,13.75
2023-03-22T01:35:50.434Z,13.76
2023-03-22T01:38:17.623Z,13.51
2023-03-22T01:40:44.659Z,13.81
2023-03-22T01:43:17.202Z,13.72
2023-03-22T01:45:53.143Z,13.80
2023-03-22T01:48:48.509Z,13.60
2023-03-22T01:51:25.053Z,13.43
2023-03-22T01:54:14.201Z,13.57
2023-03-22T01:56:42.175Z,13.67
2023-03-22T01:59:14.227Z,13.58
2023-03-22T02:01:41.607Z,13.57
2023-03-22T02:04:19.975Z,13.50
2023-03-22T02:06:48.187Z,13.57
2023-03-22T02:09:21.962Z,13.57
2023-03-22T02:12:13.217Z,13.49
2023-03-22T02:15:11.090Z,13.41
2023-03-22T02:18:20.625Z,13.43
2023-03-22T02:21:34.920Z,13.14
2023-03-22T02:25:19.520Z,13.04
2023-03-22T02:28:53.385Z,13.24
2023-03-22T02:31:48.568Z,13.24
2023-03-22T02:35:06.408Z,13.30
2023-03-22T02:38:12.438Z,13.42
2023-03-22T02:41:22.460Z,13.33
2023-03-22T02:44:47.544Z,13.45
2023-03-22T02:47:43.435Z,13.36
2023-03-22T02:50:29.220Z,13.30
2023-03-22T02:53:19.054Z,13.31
2023-03-22T02:55:57.530Z,13.29
2023-03-22T02:58:48.007Z,13.20
2023-03-22T03:01:32.954Z,13.16
2023-03-22T03:04:07.288Z,13.10
2023-03-22T03:06:40.671Z,13.14
2023-03-22T03:09:08.750Z,13.02
2023-03-22T03:11:38.801Z,12.78
2023-03-22T03:14:05.917Z,12.98
2023-03-22T03:16:36.647Z,12.79
2023-03-22T03:19:41.041Z,12.89
2023-03-22T03:22:47.134Z,13.01
2023-03-22T03:25:46.691Z,12.73
2023-03-22T03:28:57.761Z,12.69
2023-03-22T03:31:55.047Z,12.81
2023-03-22T03:34:49.613Z,12.82
2023-03-22T03:37:23.944Z,12.67
2023-03-22T03:40:36.196Z,12.71
2023-03-22T03:43:06.225Z,12.57
2023-03-22T03:45:35.916Z,12.68
2023-03-22T03:48:17.010Z,12.78
2023-03-22T03:50:44.312Z,12.78
2023-03-22T03:53:11.382Z,12.87
2023-03-22T03:55:38.504Z,12.88
2023-03-22T03:58:08.896Z,12.81
2023-03-22T04:00:40.069Z,12.84
2023-03-22T04:03:07.334Z,12.90
2023-03-22T04:05:35.152Z,12.88
2023-03-22T04:08:02.231Z,12.95
2023-03-22T04:10:29.280Z,12.79
2023-03-22T04:12:56.563Z,12.89
2023-03-22T04:15:24.266Z,12.71
2023-03-22T04:17:51.329Z,12.49
2023-03-22T04:20:19.485Z,12.63
2023-03-22T04:22:48.340Z,12.88
2023-03-22T04:25:18.758Z,12.97
2023-03-22T04:27:51.378Z,13.07
2023-03-22T04:30:22.793Z,12.98
2023-03-22T04:32:50.574Z,13.10
2023-03-22T04:35:18.197Z,12.91
2023-03-22T04:37:45.593Z,13.09
2023-03-22T04:40:15.970Z,13.11
2023-03-22T04:42:45.439Z,13.14
2023-03-22T04:45:13.923Z,13.15
2023-03-22T04:47:41.225Z,12.84
2023-03-22T04:50:09.557Z,12.97
2023-03-22T04:52:39.943Z,13.01
2023-03-22T04:55:07.575Z,12.92
2023-03-22T04:57:35.694Z,13.05
2023-03-22T05:00:06.627Z,13.00
2023-03-22T05:02:34.839Z,12.95
2023-03-22T05:05:01.884Z,12.65
2023-03-22T05:07:29.444Z,12.89
2023-03-22T05:09:56.465Z,12.45
2023-03-22T05:12:23.626Z,12.44
2023-03-22T05:14:50.706Z,12.45
2023-03-22T05:17:18.364Z,12.56
2023-03-22T05:19:45.764Z,12.55
2023-03-22T05:22:13.892Z,12.83
2023-03-22T05:24:41.064Z,12.94
2023-03-22T05:27:08.409Z,13.00
2023-03-22T05:29:36.953Z,12.79
2023-03-22T05:32:04.598Z,12.78
2023-03-22T05:34:35.779Z,12.89
2023-03-22T05:37:03.556Z,12.48
2023-03-22T05:39:31.274Z,12.85
2023-03-22T05:41:58.329Z,13.04
2023-03-22T05:44:25.604Z,13.03
2023-03-22T05:46:52.691Z,12.97
2023-03-22T05:49:21.133Z,12.91
2023-03-22T05:51:48.428Z,12.91
2023-03-22T05:54:15.943Z,12.96
2023-03-22T05:56:44.130Z,13.02
2023-03-22T05:59:11.392Z,12.87
2023-03-22T06:01:58.259Z,12.83
2023-03-22T06:04:28.120Z,12.69
2023-03-22T06:06:55.466Z,12.76
2023-03-22T06:09:22.788Z,12.77
2023-03-22T06:11:49.933Z,12.46
2023-03-22T06:14:17.047Z,12.91
2023-03-22T06:16:44.214Z,12.79
2023-03-22T06:19:11.259Z,13.00
2023-03-22T06:21:38.323Z,12.99
2023-03-22T06:24:05.783Z,12.93
2023-03-22T06:26:32.924Z,12.87
2023-03-22T06:29:00.172Z,12.97
2023-03-22T06:31:27.544Z,12.91
2023-03-22T06:33:55.935Z,12.96
2023-03-22T06:36:23.148Z,13.24
2023-03-22T06:38:50.309Z,13.22
2023-03-22T06:41:17.450Z,13.23
2023-03-22T06:43:44.535Z,13.20
2023-03-22T06:46:11.789Z,13.39
2023-03-22T06:48:38.892Z,13.32
2023-03-22T06:51:06.864Z,13.61
2023-03-22T06:53:36.624Z,13.58
2023-03-22T06:56:04.241Z,13.50
2023-03-22T06:58:31.334Z,13.60
2023-03-22T07:00:58.463Z,13.63
2023-03-22T07:03:25.878Z,13.71
2023-03-22T07:06:00.859Z,13.65
2023-03-22T07:08:28.057Z,13.76
2023-03-22T07:10:55.262Z,13.92
2023-03-22T07:13:22.337Z,14.05
2023-03-22T07:15:49.742Z,13.99
2023-03-22T07:18:17.067Z,13.97
2023-03-22T07:20:45.721Z,13.93
2023-03-22T07:23:13.731Z,13.84
2023-03-22T07:25:41.301Z,13.99
2023-03-22T07:28:10.361Z,13.93
2023-03-22T07:30:41.481Z,14.15
2023-03-22T07:33:10.907Z,14.24
2023-03-22T07:35:41.226Z,14.41
2023-03-22T07:38:08.415Z,14.64
2023-03-22T07:40:36.949Z,14.79
2023-03-22T07:43:04.336Z,14.77
2023-03-22T07:45:31.545Z,14.76
2023-03-22T07:47:58.664Z,14.81
2023-03-22T07:50:25.866Z,14.97
2023-03-22T07:52:55.436Z,15.08
2023-03-22T07:55:22.724Z,15.07
2023-03-22T07:57:49.894Z,15.11
2023-03-22T08:00:18.529Z,15.14
2023-03-22T08:02:46.190Z,15.23
2023-03-22T08:05:13.832Z,15.15
2023-03-22T08:07:41.299Z,14.75
2023-03-22T08:10:09.233Z,15.61
2023-03-22T08:12:36.613Z,15.52
2023-03-22T08:15:04.210Z,15.61
2023-03-22T08:17:31.475Z,15.86
2023-03-22T08:19:58.596Z,15.47
2023-03-22T08:22:29.558Z,15.65
2023-03-22T08:24:56.924Z,15.85
2023-03-22T08:27:24.123Z,15.94
2023-03-22T08:29:51.551Z,16.13
2023-03-22T08:32:19.197Z,16.19
2023-03-22T08:34:46.596Z,16.45
2023-03-22T08:37:15.022Z,16.27
2023-03-22T08:39:44.080Z,16.31
2023-03-22T08:42:11.150Z,16.71
2023-03-22T08:44:38.357Z,16.96
2023-03-22T08:47:05.795Z,16.74
2023-03-22T08:49:34.520Z,16.78
2023-03-22T08:52:01.729Z,17.02
2023-03-22T08:54:38.216Z,16.93
2023-03-22T08:57:09.328Z,17.10
2023-03-22T08:59:36.525Z,17.11
2023-03-22T09:02:03.786Z,17.37
2023-03-22T09:04:31.287Z,17.15
2023-03-22T09:06:58.356Z,17.20
2023-03-22T09:09:25.597Z,17.42
2023-03-22T09:11:52.802Z,17.65
2023-03-22T09:14:19.899Z,17.58
2023-03-22T09:16:47.861Z,17.65
2023-03-22T09:19:14.992Z,17.49
2023-03-22T09:21:42.740Z,17.70
2023-03-22T09:24:09.970Z,17.78
2023-03-22T09:26:37.540Z,17.89
2023-03-22T09:29:04.742Z,18.20
2023-03-22T09:31:32.084Z,17.89
2023-03-22T09:33:59.348Z,18.13
2023-03-22T09:36:26.450Z,18.04
2023-03-22T09:38:53.581Z,18.25
2023-03-22T09:41:41.483Z,18.35
2023-03-22T09:44:32.580Z,18.31
2023-03-22T09:47:02.110Z,18.60
2023-03-22T09:49:53.034Z,16.99
2023-03-22T09:52:21.581Z,18.80
2023-03-22T09:54:50.437Z,18.66
2023-03-22T09:57:37.464Z,18.55
2023-03-22T10:00:50.497Z,18.49
2023-03-22T10:04:16.454Z,18.69
2023-03-22T10:06:54.761Z,19.32
2023-03-22T10:10:00.639Z,19.20
2023-03-22T10:12:59.567Z,19.17
2023-03-22T10:16:03.161Z,19.15
2023-03-22T10:18:47.113Z,19.33
2023-03-22T10:21:17.863Z,19.38
2023-03-22T10:24:11.268Z,18.99
2023-03-22T10:26:45.840Z,19.53
2023-03-22T10:29:32.291Z,19.57
2023-03-22T10:32:17.919Z,19.85
2023-03-22T10:34:46.679Z,20.02
2023-03-22T10:37:29.212Z,19.86
2023-03-22T10:40:00.259Z,19.54
2023-03-22T10:42:31.150Z,18.96
2023-03-22T10:45:13.169Z,18.64
2023-03-22T10:47:58.142Z,18.63
2023-03-22T10:50:39.335Z,19.31
2023-03-22T10:53:29.404Z,19.46
2023-03-22T10:55:57.470Z,19.52
2023-03-22T10:58:34.522Z,19.93
2023-03-22T11:01:33.573Z,20.06
2023-03-22T11:04:03.765Z,20.04
2023-03-22T11:06:38.770Z,19.44
2023-03-22T11:09:32.229Z,19.90
2023-03-22T11:12:00.952Z,20.13
2023-03-22T11:14:37.510Z,19.54
2023-03-22T11:17:10.163Z,19.81
2023-03-22T11:20:01.912Z,20.00
2023-03-22T11:22:42.674Z,19.44
2023-03-22T11:25:38.436Z,19.56
2023-03-22T11:28:07.707Z,20.02
2023-03-22T11:30:36.238Z,20.55
2023-03-22T11:33:17.325Z,20.34
2023-03-22T11:35:53.356Z,20.54
2023-03-22T11:38:48.255Z,20.33
2023-03-22T11:41:35.129Z,20.14
2023-03-22T11:44:15.795Z,20.39
2023-03-22T11:47:00.559Z,20.26
2023-03-22T11:49:51.607Z,20.27
2023-03-22T11:52:26.067Z,20.85
2023-03-22T11:54:55.716Z,21.08
2023-03-22T11:57:31.426Z,21.03
2023-03-22T12:00:21.373Z,20.99
2023-03-22T12:03:06.261Z,21.28
2023-03-22T12:05:38.384Z,20.77
2023-03-22T12:08:42.827Z,20.49
2023-03-22T12:11:51.698Z,20.65
2023-03-22T12:14:41.647Z,20.82
2023-03-22T12:17:28.651Z,21.22
2023-03-22T12:20:30.956Z,21.71
2023-03-22T12:22:58.774Z,21.71
2023-03-22T12:25:35.535Z,21.76
2023-03-22T12:28:18.040Z,22.11
2023-03-22T12:30:53.786Z,21.97
2023-03-22T12:33:35.411Z,22.09
2023-03-22T12:36:06.860Z,22.21
2023-03-22T12:38:59.152Z,22.30
2023-03-22T12:44:46.475Z,22.28
2023-03-22T12:47:27.437Z,22.30
2023-03-22T12:50:11.987Z,21.89
2023-03-22T12:52:47.653Z,21.94
2023-03-22T12:55:40.916Z,22.22
2023-03-22T12:58:24.202Z,22.33
2023-03-22T13:01:20.973Z,22.53
2023-03-22T13:03:54.531Z,21.63
2023-03-22T13:06:50.634Z,22.44
2023-03-22T13:09:27.669Z,22.56
2023-03-22T13:12:16.492Z,22.73
2023-03-22T13:15:41.310Z,22.80
2023-03-22T13:18:40.091Z,22.99
2023-03-22T13:21:31.828Z,22.76
2023-03-22T13:24:16.869Z,23.27
2023-03-22T13:26:51.584Z,22.84
2023-03-22T13:29:37.477Z,22.00
2023-03-22T13:32:28.408Z,22.09
2023-03-22T13:34:56.567Z,22.34
2023-03-22T13:37:47.070Z,21.94
2023-03-22T13:40:34.832Z,22.39
2023-03-22T13:43:26.187Z,23.00
2023-03-22T13:46:19.987Z,23.32
2023-03-22T13:48:47.593Z,22.33
2023-03-22T13:51:25.393Z,22.16
2023-03-22T13:54:18.020Z,22.10
2023-03-22T13:57:01.545Z,21.59
2023-03-22T14:00:06.855Z,22.45
2023-03-22T14:02:42.173Z,22.22
2023-03-22T14:05:22.358Z,22.16
2023-03-22T14:08:00.151Z,21.30
2023-03-22T14:10:44.372Z,21.07
2023-03-22T14:13:48.014Z,21.09
2023-03-22T14:16:48.772Z,20.83
2023-03-22T14:19:31.801Z,20.99
